sensor_id;sensor_type;location;lat;lon;timestamp;temperature;humidity
12426;DHT22;6277;49.824;9.562;2023-08-07T00:01:03;14.70;87.30
12426;DHT22;6277;49.824;9.562;2023-08-07T00:03:29;14.70;87.20
12426;DHT22;6277;49.824;9.562;2023-08-07T00:05:54;14.70;87.20
12426;DHT22;6277;49.824;9.562;2023-08-07T00:08:20;14.70;87.30
12426;DHT22;6277;49.824;9.562;2023-08-07T00:10:46;14.70;87.40
12426;DHT22;6277;49.824;9.562;2023-08-07T00:13:12;14.70;87.60
12426;DHT22;6277;49.824;9.562;2023-08-07T00:15:38;14.70;87.60
12426;DHT22;6277;49.824;9.562;2023-08-07T00:18:04;14.70;87.70
12426;DHT22;6277;49.824;9.562;2023-08-07T00:20:29;14.70;87.70
12426;DHT22;6277;49.824;9.562;2023-08-07T00:22:55;14.70;87.70
12426;DHT22;6277;49.824;9.562;2023-08-07T00:25:20;14.70;87.70
12426;DHT22;6277;49.824;9.562;2023-08-07T00:27:46;14.70;87.80
12426;DHT22;6277;49.824;9.562;2023-08-07T00:30:12;14.70;87.80
12426;DHT22;6277;49.824;9.562;2023-08-07T00:32:37;14.70;87.90
12426;DHT22;6277;49.824;9.562;2023-08-07T00:35:03;14.70;87.90
12426;DHT22;6277;49.824;9.562;2023-08-07T00:37:30;14.70;88.00
12426;DHT22;6277;49.824;9.562;2023-08-07T00:39:55;14.70;88.10
12426;DHT22;6277;49.824;9.562;2023-08-07T00:42:21;14.70;88.00
12426;DHT22;6277;49.824;9.562;2023-08-07T00:44:47;14.70;88.10
12426;DHT22;6277;49.824;9.562;2023-08-07T00:47:12;14.60;88.10
12426;DHT22;6277;49.824;9.562;2023-08-07T00:49:38;14.70;88.20
12426;DHT22;6277;49.824;9.562;2023-08-07T00:52:04;14.70;88.20
12426;DHT22;6277;49.824;9.562;2023-08-07T00:54:30;14.60;88.10
12426;DHT22;6277;49.824;9.562;2023-08-07T00:57:04;14.60;88.30
12426;DHT22;6277;49.824;9.562;2023-08-07T00:59:31;14.60;88.30
12426;DHT22;6277;49.824;9.562;2023-08-07T01:01:57;14.60;88.40
12426;DHT22;6277;49.824;9.562;2023-08-07T01:04:23;14.60;88.40
12426;DHT22;6277;49.824;9.562;2023-08-07T01:06:48;14.60;88.50
12426;DHT22;6277;49.824;9.562;2023-08-07T01:09:14;14.60;88.60
12426;DHT22;6277;49.824;9.562;2023-08-07T01:11:49;14.60;88.70
12426;DHT22;6277;49.824;9.562;2023-08-07T01:14:57;14.60;88.70
12426;DHT22;6277;49.824;9.562;2023-08-07T01:17:15;14.60;88.70
12426;DHT22;6277;49.824;9.562;2023-08-07T01:19:42;14.60;88.60
12426;DHT22;6277;49.824;9.562;2023-08-07T01:24:37;14.60;88.70
12426;DHT22;6277;49.824;9.562;2023-08-07T01:32:19;14.50;88.60
12426;DHT22;6277;49.824;9.562;2023-08-07T01:34:48;14.50;88.60
12426;DHT22;6277;49.824;9.562;2023-08-07T01:37:13;14.50;88.70
12426;DHT22;6277;49.824;9.562;2023-08-07T01:39:40;14.50;88.80
12426;DHT22;6277;49.824;9.562;2023-08-07T01:42:07;14.50;88.80
12426;DHT22;6277;49.824;9.562;2023-08-07T01:44:32;14.50;88.90
12426;DHT22;6277;49.824;9.562;2023-08-07T01:46:58;14.40;88.90
12426;DHT22;6277;49.824;9.562;2023-08-07T01:49:24;14.40;88.90
12426;DHT22;6277;49.824;9.562;2023-08-07T01:51:49;14.40;88.90
12426;DHT22;6277;49.824;9.562;2023-08-07T01:54:15;14.40;88.90
12426;DHT22;6277;49.824;9.562;2023-08-07T01:56:40;14.40;89.00
12426;DHT22;6277;49.824;9.562;2023-08-07T01:59:06;14.40;89.00
12426;DHT22;6277;49.824;9.562;2023-08-07T02:01:31;14.40;89.00
12426;DHT22;6277;49.824;9.562;2023-08-07T02:03:57;14.40;89.10
12426;DHT22;6277;49.824;9.562;2023-08-07T02:06:22;14.40;89.30
12426;DHT22;6277;49.824;9.562;2023-08-07T02:08:48;14.40;89.30
12426;DHT22;6277;49.824;9.562;2023-08-07T02:11:13;14.40;89.20
12426;DHT22;6277;49.824;9.562;2023-08-07T02:13:39;14.40;89.30
12426;DHT22;6277;49.824;9.562;2023-08-07T02:16:04;14.40;89.30
12426;DHT22;6277;49.824;9.562;2023-08-07T02:18:30;14.30;89.40
12426;DHT22;6277;49.824;9.562;2023-08-07T02:20:55;14.30;89.40
12426;DHT22;6277;49.824;9.562;2023-08-07T02:23:21;14.30;89.40
12426;DHT22;6277;49.824;9.562;2023-08-07T02:25:47;14.30;89.30
12426;DHT22;6277;49.824;9.562;2023-08-07T02:28:13;14.30;89.40
12426;DHT22;6277;49.824;9.562;2023-08-07T02:30:38;14.30;89.40
12426;DHT22;6277;49.824;9.562;2023-08-07T02:33:04;14.30;89.40
12426;DHT22;6277;49.824;9.562;2023-08-07T02:35:30;14.30;89.50
12426;DHT22;6277;49.824;9.562;2023-08-07T02:37:55;14.30;89.50
12426;DHT22;6277;49.824;9.562;2023-08-07T02:40:21;14.30;89.50
12426;DHT22;6277;49.824;9.562;2023-08-07T02:42:46;14.30;89.50
12426;DHT22;6277;49.824;9.562;2023-08-07T02:45:12;14.30;89.40
12426;DHT22;6277;49.824;9.562;2023-08-07T02:47:37;14.30;89.40
12426;DHT22;6277;49.824;9.562;2023-08-07T02:50:03;14.20;89.50
12426;DHT22;6277;49.824;9.562;2023-08-07T02:52:29;14.20;89.50
12426;DHT22;6277;49.824;9.562;2023-08-07T02:54:55;14.20;89.50
12426;DHT22;6277;49.824;9.562;2023-08-07T02:57:20;14.30;89.60
12426;DHT22;6277;49.824;9.562;2023-08-07T02:59:46;14.20;89.50
12426;DHT22;6277;49.824;9.562;2023-08-07T03:02:11;14.20;89.50
12426;DHT22;6277;49.824;9.562;2023-08-07T03:04:37;14.20;89.60
12426;DHT22;6277;49.824;9.562;2023-08-07T03:07:02;14.20;89.60
12426;DHT22;6277;49.824;9.562;2023-08-07T03:09:28;14.20;89.60
12426;DHT22;6277;49.824;9.562;2023-08-07T03:11:54;14.20;89.60
12426;DHT22;6277;49.824;9.562;2023-08-07T03:14:19;14.20;89.80
12426;DHT22;6277;49.824;9.562;2023-08-07T03:16:45;14.10;89.70
12426;DHT22;6277;49.824;9.562;2023-08-07T03:19:11;14.10;89.70
12426;DHT22;6277;49.824;9.562;2023-08-07T03:21:37;14.10;89.70
12426;DHT22;6277;49.824;9.562;2023-08-07T03:24:02;14.10;89.80
12426;DHT22;6277;49.824;9.562;2023-08-07T03:26:28;14.10;89.80
12426;DHT22;6277;49.824;9.562;2023-08-07T03:28:53;14.10;89.80
12426;DHT22;6277;49.824;9.562;2023-08-07T03:31:19;14.10;89.80
12426;DHT22;6277;49.824;9.562;2023-08-07T03:33:44;14.20;89.80
12426;DHT22;6277;49.824;9.562;2023-08-07T03:36:10;14.10;89.80
12426;DHT22;6277;49.824;9.562;2023-08-07T03:38:36;14.10;89.80
12426;DHT22;6277;49.824;9.562;2023-08-07T03:41:01;14.10;89.80
12426;DHT22;6277;49.824;9.562;2023-08-07T03:43:27;14.10;89.80
12426;DHT22;6277;49.824;9.562;2023-08-07T03:45:56;14.10;89.80
12426;DHT22;6277;49.824;9.562;2023-08-07T03:48:24;14.10;89.90
12426;DHT22;6277;49.824;9.562;2023-08-07T03:50:49;14.10;89.80
12426;DHT22;6277;49.824;9.562;2023-08-07T03:53:15;14.10;89.80
12426;DHT22;6277;49.824;9.562;2023-08-07T03:55:40;14.10;89.80
12426;DHT22;6277;49.824;9.562;2023-08-07T03:58:07;14.00;89.80
12426;DHT22;6277;49.824;9.562;2023-08-07T04:00:33;14.10;89.90
12426;DHT22;6277;49.824;9.562;2023-08-07T04:02:58;14.00;89.80
12426;DHT22;6277;49.824;9.562;2023-08-07T04:05:24;14.00;89.90
12426;DHT22;6277;49.824;9.562;2023-08-07T04:07:49;14.00;89.90
12426;DHT22;6277;49.824;9.562;2023-08-07T04:10:15;14.00;89.90
12426;DHT22;6277;49.824;9.562;2023-08-07T04:12:40;14.00;90.00
12426;DHT22;6277;49.824;9.562;2023-08-07T04:15:07;14.00;90.00
12426;DHT22;6277;49.824;9.562;2023-08-07T04:17:32;14.00;90.00
12426;DHT22;6277;49.824;9.562;2023-08-07T04:19:58;14.00;89.90
12426;DHT22;6277;49.824;9.562;2023-08-07T04:22:23;14.00;90.00
12426;DHT22;6277;49.824;9.562;2023-08-07T04:24:49;14.00;90.00
12426;DHT22;6277;49.824;9.562;2023-08-07T04:27:14;14.00;90.00
12426;DHT22;6277;49.824;9.562;2023-08-07T04:29:40;14.00;90.00
12426;DHT22;6277;49.824;9.562;2023-08-07T04:32:06;14.00;90.00
12426;DHT22;6277;49.824;9.562;2023-08-07T04:34:31;14.00;90.00
12426;DHT22;6277;49.824;9.562;2023-08-07T04:36:57;14.00;90.00
12426;DHT22;6277;49.824;9.562;2023-08-07T04:39:23;14.00;90.10
12426;DHT22;6277;49.824;9.562;2023-08-07T04:41:48;14.00;90.10
12426;DHT22;6277;49.824;9.562;2023-08-07T04:44:16;14.00;90.10
12426;DHT22;6277;49.824;9.562;2023-08-07T04:46:42;14.00;90.10
12426;DHT22;6277;49.824;9.562;2023-08-07T04:49:08;14.00;90.00
12426;DHT22;6277;49.824;9.562;2023-08-07T04:51:33;14.00;90.10
12426;DHT22;6277;49.824;9.562;2023-08-07T04:53:59;14.00;90.10
12426;DHT22;6277;49.824;9.562;2023-08-07T04:56:24;14.00;90.00
12426;DHT22;6277;49.824;9.562;2023-08-07T04:58:50;14.00;90.10
12426;DHT22;6277;49.824;9.562;2023-08-07T05:01:15;14.00;90.10
12426;DHT22;6277;49.824;9.562;2023-08-07T05:03:41;14.00;90.10
12426;DHT22;6277;49.824;9.562;2023-08-07T05:06:06;14.00;90.10
12426;DHT22;6277;49.824;9.562;2023-08-07T05:08:32;14.00;90.10
12426;DHT22;6277;49.824;9.562;2023-08-07T05:10:57;14.00;90.10
12426;DHT22;6277;49.824;9.562;2023-08-07T05:13:23;14.00;90.10
12426;DHT22;6277;49.824;9.562;2023-08-07T05:15:49;14.00;90.10
12426;DHT22;6277;49.824;9.562;2023-08-07T05:18:15;14.00;90.20
12426;DHT22;6277;49.824;9.562;2023-08-07T05:20:41;14.00;90.20
12426;DHT22;6277;49.824;9.562;2023-08-07T05:23:06;14.00;90.20
12426;DHT22;6277;49.824;9.562;2023-08-07T05:25:32;14.00;90.20
12426;DHT22;6277;49.824;9.562;2023-08-07T05:27:58;14.10;90.20
12426;DHT22;6277;49.824;9.562;2023-08-07T05:30:23;14.10;90.30
12426;DHT22;6277;49.824;9.562;2023-08-07T05:32:49;14.10;90.40
12426;DHT22;6277;49.824;9.562;2023-08-07T05:35:14;14.10;90.40
12426;DHT22;6277;49.824;9.562;2023-08-07T05:37:40;14.10;90.40
12426;DHT22;6277;49.824;9.562;2023-08-07T05:40:06;14.10;90.40
12426;DHT22;6277;49.824;9.562;2023-08-07T05:42:32;14.20;90.70
12426;DHT22;6277;49.824;9.562;2023-08-07T05:44:58;14.20;90.50
12426;DHT22;6277;49.824;9.562;2023-08-07T05:47:24;14.20;90.50
12426;DHT22;6277;49.824;9.562;2023-08-07T05:49:49;14.30;90.50
12426;DHT22;6277;49.824;9.562;2023-08-07T05:52:17;14.30;90.50
12426;DHT22;6277;49.824;9.562;2023-08-07T05:54:42;14.30;90.40
12426;DHT22;6277;49.824;9.562;2023-08-07T05:57:08;14.40;90.50
12426;DHT22;6277;49.824;9.562;2023-08-07T05:59:33;14.40;90.40
12426;DHT22;6277;49.824;9.562;2023-08-07T06:02:00;14.40;90.30
12426;DHT22;6277;49.824;9.562;2023-08-07T06:04:25;14.50;90.40
12426;DHT22;6277;49.824;9.562;2023-08-07T06:06:51;14.50;90.40
12426;DHT22;6277;49.824;9.562;2023-08-07T06:09:16;14.50;90.30
12426;DHT22;6277;49.824;9.562;2023-08-07T06:11:42;14.60;90.30
12426;DHT22;6277;49.824;9.562;2023-08-07T06:14:08;14.60;90.30
12426;DHT22;6277;49.824;9.562;2023-08-07T06:16:35;14.60;90.30
12426;DHT22;6277;49.824;9.562;2023-08-07T06:19:00;14.60;90.20
12426;DHT22;6277;49.824;9.562;2023-08-07T06:21:26;14.70;90.20
12426;DHT22;6277;49.824;9.562;2023-08-07T06:23:54;14.70;90.20
12426;DHT22;6277;49.824;9.562;2023-08-07T06:26:19;14.70;90.10
12426;DHT22;6277;49.824;9.562;2023-08-07T06:28:45;14.70;90.10
12426;DHT22;6277;49.824;9.562;2023-08-07T06:31:11;14.70;90.10
12426;DHT22;6277;49.824;9.562;2023-08-07T06:33:37;14.80;90.10
12426;DHT22;6277;49.824;9.562;2023-08-07T06:36:03;14.80;90.10
12426;DHT22;6277;49.824;9.562;2023-08-07T06:38:30;14.80;90.10
12426;DHT22;6277;49.824;9.562;2023-08-07T06:40:56;14.90;90.10
12426;DHT22;6277;49.824;9.562;2023-08-07T06:43:21;14.90;90.20
12426;DHT22;6277;49.824;9.562;2023-08-07T06:45:51;15.00;90.40
12426;DHT22;6277;49.824;9.562;2023-08-07T06:48:17;15.10;90.40
12426;DHT22;6277;49.824;9.562;2023-08-07T06:50:43;15.20;90.30
12426;DHT22;6277;49.824;9.562;2023-08-07T06:53:09;15.20;90.40
12426;DHT22;6277;49.824;9.562;2023-08-07T06:55:35;15.30;90.20
12426;DHT22;6277;49.824;9.562;2023-08-07T06:58:00;15.30;90.20
12426;DHT22;6277;49.824;9.562;2023-08-07T07:00:26;15.40;90.10
12426;DHT22;6277;49.824;9.562;2023-08-07T07:02:51;15.40;90.00
12426;DHT22;6277;49.824;9.562;2023-08-07T07:05:18;15.50;90.00
12426;DHT22;6277;49.824;9.562;2023-08-07T07:07:43;15.50;90.00
12426;DHT22;6277;49.824;9.562;2023-08-07T07:10:09;15.60;89.90
12426;DHT22;6277;49.824;9.562;2023-08-07T07:12:34;15.60;89.60
12426;DHT22;6277;49.824;9.562;2023-08-07T07:15:00;15.60;88.90
12426;DHT22;6277;49.824;9.562;2023-08-07T07:17:26;15.60;88.90
12426;DHT22;6277;49.824;9.562;2023-08-07T07:19:51;15.60;89.30
12426;DHT22;6277;49.824;9.562;2023-08-07T07:22:17;15.60;88.40
12426;DHT22;6277;49.824;9.562;2023-08-07T07:24:42;15.60;88.30
12426;DHT22;6277;49.824;9.562;2023-08-07T07:27:08;15.60;88.60
12426;DHT22;6277;49.824;9.562;2023-08-07T07:29:33;15.60;88.60
12426;DHT22;6277;49.824;9.562;2023-08-07T07:31:59;15.60;88.70
12426;DHT22;6277;49.824;9.562;2023-08-07T07:34:24;15.50;88.40
12426;DHT22;6277;49.824;9.562;2023-08-07T07:36:50;15.60;88.40
12426;DHT22;6277;49.824;9.562;2023-08-07T07:39:16;15.60;88.30
12426;DHT22;6277;49.824;9.562;2023-08-07T07:41:42;15.60;88.30
12426;DHT22;6277;49.824;9.562;2023-08-07T07:44:08;15.50;88.00
12426;DHT22;6277;49.824;9.562;2023-08-07T07:46:33;15.50;87.70
12426;DHT22;6277;49.824;9.562;2023-08-07T07:48:59;15.50;87.90
12426;DHT22;6277;49.824;9.562;2023-08-07T07:51:25;15.50;87.40
12426;DHT22;6277;49.824;9.562;2023-08-07T07:53:50;15.50;87.50
12426;DHT22;6277;49.824;9.562;2023-08-07T07:56:16;15.50;87.50
12426;DHT22;6277;49.824;9.562;2023-08-07T07:58:42;15.40;87.20
12426;DHT22;6277;49.824;9.562;2023-08-07T08:01:07;15.40;87.10
12426;DHT22;6277;49.824;9.562;2023-08-07T08:03:33;15.30;87.20
12426;DHT22;6277;49.824;9.562;2023-08-07T08:05:59;15.30;87.30
12426;DHT22;6277;49.824;9.562;2023-08-07T08:08:25;15.30;87.30
12426;DHT22;6277;49.824;9.562;2023-08-07T08:10:51;15.20;87.20
12426;DHT22;6277;49.824;9.562;2023-08-07T08:13:17;15.20;87.60
12426;DHT22;6277;49.824;9.562;2023-08-07T08:15:44;15.20;87.90
12426;DHT22;6277;49.824;9.562;2023-08-07T08:18:10;15.20;88.30
12426;DHT22;6277;49.824;9.562;2023-08-07T08:20:37;15.30;88.30
12426;DHT22;6277;49.824;9.562;2023-08-07T08:23:03;15.40;88.80
12426;DHT22;6277;49.824;9.562;2023-08-07T08:25:30;15.40;88.80
12426;DHT22;6277;49.824;9.562;2023-08-07T08:27:55;15.50;88.80
12426;DHT22;6277;49.824;9.562;2023-08-07T08:30:21;15.50;88.10
12426;DHT22;6277;49.824;9.562;2023-08-07T08:32:46;15.60;87.90
12426;DHT22;6277;49.824;9.562;2023-08-07T08:35:13;15.60;87.40
12426;DHT22;6277;49.824;9.562;2023-08-07T08:37:38;15.60;87.60
12426;DHT22;6277;49.824;9.562;2023-08-07T08:40:04;15.60;87.10
12426;DHT22;6277;49.824;9.562;2023-08-07T08:42:32;15.70;86.90
12426;DHT22;6277;49.824;9.562;2023-08-07T08:44:58;15.70;87.10
12426;DHT22;6277;49.824;9.562;2023-08-07T08:47:26;15.70;87.10
12426;DHT22;6277;49.824;9.562;2023-08-07T08:50:03;15.80;87.00
12426;DHT22;6277;49.824;9.562;2023-08-07T08:52:31;15.80;86.80
12426;DHT22;6277;49.824;9.562;2023-08-07T08:54:57;15.80;86.80
12426;DHT22;6277;49.824;9.562;2023-08-07T08:57:25;15.80;86.70
12426;DHT22;6277;49.824;9.562;2023-08-07T08:59:52;15.80;86.70
12426;DHT22;6277;49.824;9.562;2023-08-07T09:02:18;15.90;86.90
12426;DHT22;6277;49.824;9.562;2023-08-07T09:04:46;15.90;86.80
12426;DHT22;6277;49.824;9.562;2023-08-07T09:07:15;15.90;86.90
12426;DHT22;6277;49.824;9.562;2023-08-07T09:09:41;15.90;86.80
12426;DHT22;6277;49.824;9.562;2023-08-07T09:12:13;16.00;86.90
12426;DHT22;6277;49.824;9.562;2023-08-07T09:14:41;16.00;86.00
12426;DHT22;6277;49.824;9.562;2023-08-07T09:17:08;16.10;86.80
12426;DHT22;6277;49.824;9.562;2023-08-07T09:19:34;16.20;86.50
12426;DHT22;6277;49.824;9.562;2023-08-07T09:22:00;16.20;86.30
12426;DHT22;6277;49.824;9.562;2023-08-07T09:24:25;16.30;86.20
12426;DHT22;6277;49.824;9.562;2023-08-07T09:26:51;16.40;86.50
12426;DHT22;6277;49.824;9.562;2023-08-07T09:29:18;16.40;86.40
12426;DHT22;6277;49.824;9.562;2023-08-07T09:31:45;16.50;86.10
12426;DHT22;6277;49.824;9.562;2023-08-07T09:34:11;16.60;86.20
12426;DHT22;6277;49.824;9.562;2023-08-07T09:36:39;16.70;86.60
12426;DHT22;6277;49.824;9.562;2023-08-07T09:39:06;16.80;86.90
12426;DHT22;6277;49.824;9.562;2023-08-07T09:41:31;17.00;87.00
12426;DHT22;6277;49.824;9.562;2023-08-07T09:43:57;17.10;86.80
12426;DHT22;6277;49.824;9.562;2023-08-07T09:46:25;17.20;86.10
12426;DHT22;6277;49.824;9.562;2023-08-07T09:48:51;17.40;85.50
12426;DHT22;6277;49.824;9.562;2023-08-07T09:51:16;17.40;85.90
12426;DHT22;6277;49.824;9.562;2023-08-07T09:53:42;17.50;85.80
12426;DHT22;6277;49.824;9.562;2023-08-07T09:56:07;17.60;85.30
12426;DHT22;6277;49.824;9.562;2023-08-07T09:58:34;17.70;85.20
12426;DHT22;6277;49.824;9.562;2023-08-07T10:01:02;17.80;85.10
12426;DHT22;6277;49.824;9.562;2023-08-07T10:03:28;17.90;84.50
12426;DHT22;6277;49.824;9.562;2023-08-07T10:05:54;17.90;84.00
12426;DHT22;6277;49.824;9.562;2023-08-07T10:08:21;17.90;84.30
12426;DHT22;6277;49.824;9.562;2023-08-07T10:10:47;18.00;83.80
12426;DHT22;6277;49.824;9.562;2023-08-07T10:13:13;18.00;83.10
12426;DHT22;6277;49.824;9.562;2023-08-07T10:15:40;18.00;82.50
12426;DHT22;6277;49.824;9.562;2023-08-07T10:18:10;17.90;82.20
12426;DHT22;6277;49.824;9.562;2023-08-07T10:20:36;17.90;81.50
12426;DHT22;6277;49.824;9.562;2023-08-07T10:23:07;17.70;80.90
12426;DHT22;6277;49.824;9.562;2023-08-07T10:25:35;17.70;81.20
12426;DHT22;6277;49.824;9.562;2023-08-07T10:28:04;17.60;82.10
12426;DHT22;6277;49.824;9.562;2023-08-07T10:30:32;17.50;82.20
12426;DHT22;6277;49.824;9.562;2023-08-07T10:32:59;17.50;82.00
12426;DHT22;6277;49.824;9.562;2023-08-07T10:35:32;17.50;82.40
12426;DHT22;6277;49.824;9.562;2023-08-07T10:38:08;17.50;82.50
12426;DHT22;6277;49.824;9.562;2023-08-07T10:43:24;17.40;82.00
12426;DHT22;6277;49.824;9.562;2023-08-07T10:45:50;17.40;82.50
12426;DHT22;6277;49.824;9.562;2023-08-07T10:48:20;17.40;82.50
12426;DHT22;6277;49.824;9.562;2023-08-07T10:53:37;17.50;81.10
12426;DHT22;6277;49.824;9.562;2023-08-07T10:56:05;17.50;81.30
12426;DHT22;6277;49.824;9.562;2023-08-07T10:58:37;17.50;81.70
12426;DHT22;6277;49.824;9.562;2023-08-07T11:03:44;17.40;81.80
12426;DHT22;6277;49.824;9.562;2023-08-07T11:06:10;17.40;82.10
12426;DHT22;6277;49.824;9.562;2023-08-07T11:08:37;17.40;81.60
12426;DHT22;6277;49.824;9.562;2023-08-07T11:11:06;17.40;81.70
12426;DHT22;6277;49.824;9.562;2023-08-07T11:13:33;17.40;80.90
12426;DHT22;6277;49.824;9.562;2023-08-07T11:16:00;17.40;81.70
12426;DHT22;6277;49.824;9.562;2023-08-07T11:18:27;17.40;81.20
12426;DHT22;6277;49.824;9.562;2023-08-07T11:20:54;17.40;81.50
12426;DHT22;6277;49.824;9.562;2023-08-07T11:23:30;17.40;81.20
12426;DHT22;6277;49.824;9.562;2023-08-07T11:25:55;17.40;80.50
12426;DHT22;6277;49.824;9.562;2023-08-07T11:28:22;17.30;80.80
12426;DHT22;6277;49.824;9.562;2023-08-07T11:30:50;17.30;80.80
12426;DHT22;6277;49.824;9.562;2023-08-07T11:33:18;17.30;80.70
12426;DHT22;6277;49.824;9.562;2023-08-07T11:35:43;17.30;81.10
12426;DHT22;6277;49.824;9.562;2023-08-07T11:38:09;17.30;81.30
12426;DHT22;6277;49.824;9.562;2023-08-07T11:40:35;17.30;81.30
12426;DHT22;6277;49.824;9.562;2023-08-07T11:43:01;17.30;81.50
12426;DHT22;6277;49.824;9.562;2023-08-07T11:45:27;17.30;81.40
12426;DHT22;6277;49.824;9.562;2023-08-07T11:47:53;17.30;81.80
12426;DHT22;6277;49.824;9.562;2023-08-07T11:50:21;17.40;81.80
12426;DHT22;6277;49.824;9.562;2023-08-07T11:52:47;17.40;81.50
12426;DHT22;6277;49.824;9.562;2023-08-07T11:55:14;17.40;81.50
12426;DHT22;6277;49.824;9.562;2023-08-07T11:57:40;17.50;81.00
12426;DHT22;6277;49.824;9.562;2023-08-07T12:00:08;17.50;81.10
12426;DHT22;6277;49.824;9.562;2023-08-07T12:02:41;17.50;80.80
12426;DHT22;6277;49.824;9.562;2023-08-07T12:05:08;17.50;81.30
12426;DHT22;6277;49.824;9.562;2023-08-07T12:07:36;17.50;81.70
12426;DHT22;6277;49.824;9.562;2023-08-07T12:10:04;17.50;81.50
12426;DHT22;6277;49.824;9.562;2023-08-07T12:12:36;17.60;82.00
12426;DHT22;6277;49.824;9.562;2023-08-07T12:15:03;17.70;81.50
12426;DHT22;6277;49.824;9.562;2023-08-07T12:17:31;17.70;81.20
12426;DHT22;6277;49.824;9.562;2023-08-07T12:19:58;17.70;80.70
12426;DHT22;6277;49.824;9.562;2023-08-07T12:22:27;17.70;80.70
12426;DHT22;6277;49.824;9.562;2023-08-07T12:24:53;17.70;80.30
12426;DHT22;6277;49.824;9.562;2023-08-07T12:27:19;17.60;80.60
12426;DHT22;6277;49.824;9.562;2023-08-07T12:29:45;17.60;80.40
12426;DHT22;6277;49.824;9.562;2023-08-07T12:32:10;17.50;80.50
12426;DHT22;6277;49.824;9.562;2023-08-07T12:34:36;17.50;80.80
12426;DHT22;6277;49.824;9.562;2023-08-07T12:37:03;17.50;80.50
12426;DHT22;6277;49.824;9.562;2023-08-07T12:39:29;17.50;80.70
12426;DHT22;6277;49.824;9.562;2023-08-07T12:41:54;17.50;80.40
12426;DHT22;6277;49.824;9.562;2023-08-07T12:44:20;17.50;80.50
12426;DHT22;6277;49.824;9.562;2023-08-07T12:46:46;17.40;80.90
12426;DHT22;6277;49.824;9.562;2023-08-07T12:49:12;17.50;81.30
12426;DHT22;6277;49.824;9.562;2023-08-07T12:51:37;17.50;81.30
12426;DHT22;6277;49.824;9.562;2023-08-07T12:54:03;17.60;81.30
12426;DHT22;6277;49.824;9.562;2023-08-07T12:56:29;17.60;81.50
12426;DHT22;6277;49.824;9.562;2023-08-07T12:58:54;17.80;82.10
12426;DHT22;6277;49.824;9.562;2023-08-07T13:01:20;17.80;82.00
12426;DHT22;6277;49.824;9.562;2023-08-07T13:03:46;17.90;82.20
12426;DHT22;6277;49.824;9.562;2023-08-07T13:06:11;18.00;82.00
12426;DHT22;6277;49.824;9.562;2023-08-07T13:08:37;18.10;81.60
12426;DHT22;6277;49.824;9.562;2023-08-07T13:11:03;18.20;81.70
12426;DHT22;6277;49.824;9.562;2023-08-07T13:13:29;18.30;81.30
12426;DHT22;6277;49.824;9.562;2023-08-07T13:15:56;18.30;81.50
12426;DHT22;6277;49.824;9.562;2023-08-07T13:18:22;18.40;81.50
12426;DHT22;6277;49.824;9.562;2023-08-07T13:20:47;18.50;81.70
12426;DHT22;6277;49.824;9.562;2023-08-07T13:23:13;18.60;80.90
12426;DHT22;6277;49.824;9.562;2023-08-07T13:25:40;18.70;80.80
12426;DHT22;6277;49.824;9.562;2023-08-07T13:28:06;18.80;80.70
12426;DHT22;6277;49.824;9.562;2023-08-07T13:30:34;18.90;81.00
12426;DHT22;6277;49.824;9.562;2023-08-07T13:32:59;19.00;80.70
12426;DHT22;6277;49.824;9.562;2023-08-07T13:35:25;19.00;79.60
12426;DHT22;6277;49.824;9.562;2023-08-07T13:37:52;19.10;79.80
12426;DHT22;6277;49.824;9.562;2023-08-07T13:40:20;19.10;79.50
12426;DHT22;6277;49.824;9.562;2023-08-07T13:42:46;19.10;79.50
12426;DHT22;6277;49.824;9.562;2023-08-07T13:45:12;19.10;79.40
12426;DHT22;6277;49.824;9.562;2023-08-07T13:47:39;19.20;80.20
12426;DHT22;6277;49.824;9.562;2023-08-07T13:50:05;19.30;80.60
12426;DHT22;6277;49.824;9.562;2023-08-07T13:52:33;19.40;79.80
12426;DHT22;6277;49.824;9.562;2023-08-07T13:54:58;19.50;79.50
12426;DHT22;6277;49.824;9.562;2023-08-07T13:57:24;19.60;78.80
12426;DHT22;6277;49.824;9.562;2023-08-07T13:59:49;19.70;78.80
12426;DHT22;6277;49.824;9.562;2023-08-07T14:02:15;19.70;78.40
12426;DHT22;6277;49.824;9.562;2023-08-07T14:04:41;19.80;78.00
12426;DHT22;6277;49.824;9.562;2023-08-07T14:07:10;19.80;77.80
12426;DHT22;6277;49.824;9.562;2023-08-07T14:09:36;19.90;77.80
12426;DHT22;6277;49.824;9.562;2023-08-07T14:12:02;19.90;78.20
12426;DHT22;6277;49.824;9.562;2023-08-07T14:14:28;20.10;78.50
12426;DHT22;6277;49.824;9.562;2023-08-07T14:16:54;20.20;77.90
12426;DHT22;6277;49.824;9.562;2023-08-07T14:19:23;20.30;77.60
12426;DHT22;6277;49.824;9.562;2023-08-07T14:21:48;20.40;77.50
12426;DHT22;6277;49.824;9.562;2023-08-07T14:24:14;20.40;76.60
12426;DHT22;6277;49.824;9.562;2023-08-07T14:26:41;20.50;77.70
12426;DHT22;6277;49.824;9.562;2023-08-07T14:29:07;20.50;76.70
12426;DHT22;6277;49.824;9.562;2023-08-07T14:31:32;20.50;76.30
12426;DHT22;6277;49.824;9.562;2023-08-07T14:33:58;20.50;75.70
12426;DHT22;6277;49.824;9.562;2023-08-07T14:36:23;20.50;75.80
12426;DHT22;6277;49.824;9.562;2023-08-07T14:38:49;20.60;76.10
12426;DHT22;6277;49.824;9.562;2023-08-07T14:41:14;20.60;76.00
12426;DHT22;6277;49.824;9.562;2023-08-07T14:43:40;20.60;75.90
12426;DHT22;6277;49.824;9.562;2023-08-07T14:46:06;20.70;75.80
12426;DHT22;6277;49.824;9.562;2023-08-07T14:48:31;20.80;76.00
12426;DHT22;6277;49.824;9.562;2023-08-07T14:50:57;20.90;75.90
12426;DHT22;6277;49.824;9.562;2023-08-07T14:53:23;21.00;76.10
12426;DHT22;6277;49.824;9.562;2023-08-07T14:55:50;21.20;75.70
12426;DHT22;6277;49.824;9.562;2023-08-07T14:58:16;21.40;75.80
12426;DHT22;6277;49.824;9.562;2023-08-07T15:00:42;21.60;75.20
12426;DHT22;6277;49.824;9.562;2023-08-07T15:03:07;21.70;74.90
12426;DHT22;6277;49.824;9.562;2023-08-07T15:05:33;21.80;74.00
12426;DHT22;6277;49.824;9.562;2023-08-07T15:08:00;21.80;74.20
12426;DHT22;6277;49.824;9.562;2023-08-07T15:10:26;21.90;73.80
12426;DHT22;6277;49.824;9.562;2023-08-07T15:12:51;22.00;73.80
12426;DHT22;6277;49.824;9.562;2023-08-07T15:15:17;22.10;74.10
12426;DHT22;6277;49.824;9.562;2023-08-07T15:17:42;22.30;73.70
12426;DHT22;6277;49.824;9.562;2023-08-07T15:20:08;22.50;73.80
12426;DHT22;6277;49.824;9.562;2023-08-07T15:22:34;22.70;73.00
12426;DHT22;6277;49.824;9.562;2023-08-07T15:25:00;22.90;73.00
12426;DHT22;6277;49.824;9.562;2023-08-07T15:27:25;23.10;72.80
12426;DHT22;6277;49.824;9.562;2023-08-07T15:29:51;23.30;73.10
12426;DHT22;6277;49.824;9.562;2023-08-07T15:32:16;23.50;73.20
12426;DHT22;6277;49.824;9.562;2023-08-07T15:34:45;23.80;73.60
12426;DHT22;6277;49.824;9.562;2023-08-07T15:37:11;24.10;72.80
12426;DHT22;6277;49.824;9.562;2023-08-07T15:39:37;24.40;72.40
12426;DHT22;6277;49.824;9.562;2023-08-07T15:42:02;24.70;71.90
12426;DHT22;6277;49.824;9.562;2023-08-07T15:44:28;25.00;70.60
12426;DHT22;6277;49.824;9.562;2023-08-07T15:46:54;25.20;70.70
12426;DHT22;6277;49.824;9.562;2023-08-07T15:49:19;25.40;70.10
12426;DHT22;6277;49.824;9.562;2023-08-07T15:51:45;25.60;69.80
12426;DHT22;6277;49.824;9.562;2023-08-07T15:54:10;25.80;69.30